Terminal Aerodrome Forecast
Issued by NWS Twin Cities, MN

Home | Current Version | Previous Version | Graphics & Text | Print | Product List | Glossary On
Versions: 1 2 3 4 5 6 7 8 9 10 11 12 13 14 15 16
000
FTUS43 KMPX 231133
TAFSTC
TAF
KSTC 231133Z 2312/2412 36005KT P6SM VCSH SCT007 BKN035
      TEMPO 2312/2316 BKN007
     FM231600 02006KT P6SM VCSH OVC020
     FM231800 01007KT P6SM -SHRA OVC030
     FM240000 02007KT P6SM OVC040=

USA.gov is the U.S. government's official web portal to all federal, state and local government web resources and services.